createdAt,value
2024-01-24T00:00:18.347Z,7.13
2024-01-24T00:02:49.507Z,6.67
2024-01-24T00:05:17.786Z,5.73
2024-01-24T00:07:45.788Z,4.17
2024-01-24T00:10:13.566Z,4.70
2024-01-24T00:12:41.067Z,4.57
2024-01-24T00:15:08.831Z,4.53
2024-01-24T00:17:36.104Z,4.37
2024-01-24T00:20:04.332Z,3.47
2024-01-24T00:22:31.482Z,2.93
2024-01-24T00:24:58.693Z,5.87
2024-01-24T00:27:26.219Z,2.90
2024-01-24T00:29:53.610Z,5.30
2024-01-24T00:32:20.745Z,4.40
2024-01-24T00:34:48.027Z,4.87
2024-01-24T00:37:15.296Z,4.23
2024-01-24T00:39:42.694Z,5.07
2024-01-24T00:42:09.960Z,4.43
2024-01-24T00:44:40.767Z,3.10
2024-01-24T00:47:07.978Z,4.40
2024-01-24T00:49:35.408Z,2.70
2024-01-24T00:52:05.117Z,4.33
2024-01-24T00:54:32.367Z,3.80
2024-01-24T00:56:59.499Z,5.23
2024-01-24T00:59:26.798Z,3.90
2024-01-24T01:01:53.934Z,3.77
2024-01-24T01:04:21.123Z,3.77
2024-01-24T01:06:48.654Z,2.47
2024-01-24T01:09:16.280Z,5.23
2024-01-24T01:11:43.565Z,3.50
2024-01-24T01:14:10.857Z,2.43
2024-01-24T01:16:37.982Z,2.23
2024-01-24T01:19:07.095Z,2.80
2024-01-24T01:21:34.363Z,2.23
2024-01-24T01:24:01.650Z,3.83
2024-01-24T01:26:28.995Z,2.03
2024-01-24T01:28:56.451Z,3.53
2024-01-24T01:31:23.652Z,1.90
2024-01-24T01:33:51.075Z,3.73
2024-01-24T01:36:23.275Z,2.90
2024-01-24T01:38:51.662Z,2.50
2024-01-24T01:41:20.315Z,3.47
2024-01-24T01:43:47.577Z,1.80
2024-01-24T01:46:23.277Z,2.37
2024-01-24T01:48:52.627Z,3.30
2024-01-24T01:51:23.340Z,1.87
2024-01-24T01:53:51.237Z,2.33
2024-01-24T01:56:21.332Z,2.97
2024-01-24T01:58:50.740Z,2.50
2024-01-24T02:01:18.832Z,2.07
2024-01-24T02:03:50.004Z,1.60
2024-01-24T02:06:17.439Z,1.73
2024-01-24T02:08:45.720Z,1.10
2024-01-24T02:11:13.963Z,2.50
2024-01-24T02:13:41.199Z,1.53
2024-01-24T02:16:09.421Z,2.10
2024-01-24T02:18:37.101Z,1.23
2024-01-24T02:21:04.998Z,2.13
2024-01-24T02:23:32.562Z,2.57
2024-01-24T02:25:59.768Z,1.30
2024-01-24T02:28:28.232Z,1.60
2024-01-24T02:30:55.529Z,1.97
2024-01-24T02:33:22.940Z,1.20
2024-01-24T02:35:50.357Z,1.47
2024-01-24T02:38:17.723Z,1.20
2024-01-24T02:40:44.985Z,2.67
2024-01-24T02:43:12.195Z,2.03
2024-01-24T02:45:39.408Z,1.47
2024-01-24T02:48:07.549Z,1.30
2024-01-24T02:50:35.088Z,2.13
2024-01-24T02:53:02.562Z,1.60
2024-01-24T02:55:33.043Z,1.93
2024-01-24T02:58:00.358Z,1.60
2024-01-24T03:00:29.403Z,1.30
2024-01-24T03:02:57.489Z,1.47
2024-01-24T03:05:24.844Z,0.83
2024-01-24T03:07:52.388Z,1.20
2024-01-24T03:10:19.856Z,1.10
2024-01-24T03:12:47.480Z,0.90
2024-01-24T03:15:15.192Z,1.10
2024-01-24T03:17:43.635Z,2.10
2024-01-24T03:20:13.224Z,1.00
2024-01-24T03:22:41.792Z,0.80
2024-01-24T03:25:09.762Z,1.07
2024-01-24T03:27:39.025Z,1.50
2024-01-24T03:30:07.185Z,0.87
2024-01-24T03:32:34.358Z,1.20
2024-01-24T03:35:01.590Z,1.10
2024-01-24T03:37:28.776Z,1.57
2024-01-24T03:39:56.112Z,0.73
2024-01-24T03:42:23.612Z,0.83
2024-01-24T03:44:50.850Z,0.83
2024-01-24T03:47:18.194Z,1.20
2024-01-24T03:49:45.449Z,0.77
2024-01-24T03:52:12.682Z,0.70
2024-01-24T03:54:40.038Z,0.80
2024-01-24T03:57:07.318Z,0.70
2024-01-24T03:59:39.048Z,0.77
2024-01-24T04:02:07.332Z,0.90
2024-01-24T04:04:35.806Z,0.93
2024-01-24T04:07:03.517Z,1.50
2024-01-24T04:09:30.695Z,1.80
2024-01-24T04:11:58.081Z,0.70
2024-01-24T04:14:25.252Z,1.40
2024-01-24T04:16:52.687Z,0.97
2024-01-24T04:19:19.953Z,0.43
2024-01-24T04:21:47.477Z,0.70
2024-01-24T04:24:14.900Z,0.60
2024-01-24T04:26:42.078Z,0.53
2024-01-24T04:29:12.810Z,1.10
2024-01-24T04:31:42.889Z,2.80
2024-01-24T04:34:10.222Z,1.83
2024-01-24T04:36:38.040Z,3.20
2024-01-24T04:39:05.313Z,3.87
2024-01-24T04:41:32.577Z,3.67
2024-01-24T04:43:59.796Z,3.37
2024-01-24T04:46:29.663Z,4.23
2024-01-24T04:48:57.138Z,3.27
2024-01-24T04:51:25.332Z,4.77
2024-01-24T04:53:52.577Z,4.67
2024-01-24T04:56:19.916Z,3.93
2024-01-24T04:58:47.196Z,6.03
2024-01-24T05:01:14.576Z,5.90
2024-01-24T05:03:41.868Z,6.70
2024-01-24T05:06:11.138Z,8.77
2024-01-24T05:08:39.827Z,6.20
2024-01-24T05:11:10.416Z,7.47
2024-01-24T05:13:38.477Z,6.90
2024-01-24T05:16:06.144Z,6.60
2024-01-24T05:18:33.479Z,7.50
2024-01-24T05:21:01.516Z,8.27
2024-01-24T05:23:28.713Z,7.03
2024-01-24T05:25:55.828Z,8.90
2024-01-24T05:28:23.167Z,10.53
2024-01-24T05:30:50.425Z,9.13
2024-01-24T05:33:18.068Z,9.77
2024-01-24T05:35:48.741Z,12.77
2024-01-24T05:38:15.876Z,11.60
2024-01-24T05:40:43.130Z,11.53
2024-01-24T05:43:10.399Z,8.80
2024-01-24T05:45:38.441Z,11.90
2024-01-24T05:48:06.199Z,8.53
2024-01-24T05:50:33.487Z,9.43
2024-01-24T05:53:00.954Z,9.77
2024-01-24T05:55:28.717Z,9.93
2024-01-24T05:57:55.940Z,8.37
2024-01-24T06:00:23.290Z,9.70
2024-01-24T06:02:50.553Z,9.60
2024-01-24T06:05:19.403Z,8.20
2024-01-24T06:07:49.896Z,9.07
2024-01-24T06:10:18.433Z,10.60
2024-01-24T06:12:45.698Z,10.27
2024-01-24T06:15:14.094Z,9.67
2024-01-24T06:17:41.384Z,11.93
2024-01-24T06:20:10.606Z,10.07
2024-01-24T06:22:37.848Z,10.57
2024-01-24T06:25:08.933Z,14.80
2024-01-24T06:27:37.582Z,13.13
2024-01-24T06:30:18.814Z,11.47
2024-01-24T06:32:51.101Z,12.13
2024-01-24T06:35:21.555Z,11.97
2024-01-24T06:37:50.173Z,10.77
2024-01-24T06:40:19.423Z,14.87
2024-01-24T06:42:47.603Z,15.37
2024-01-24T06:45:15.018Z,11.60
2024-01-24T06:47:42.351Z,11.90
2024-01-24T06:50:13.760Z,15.43
2024-01-24T06:52:42.176Z,13.97
2024-01-24T06:55:10.540Z,13.07
2024-01-24T06:57:37.830Z,14.73
2024-01-24T07:00:06.224Z,16.80
2024-01-24T07:02:33.964Z,14.17
2024-01-24T07:05:01.321Z,19.10
2024-01-24T07:07:28.756Z,17.10
2024-01-24T07:09:56.114Z,17.83
2024-01-24T07:12:23.714Z,15.47
2024-01-24T07:14:53.083Z,15.57
2024-01-24T07:17:21.771Z,15.97
2024-01-24T07:19:49.307Z,18.50
2024-01-24T07:22:17.860Z,15.90
2024-01-24T07:24:48.197Z,20.53
2024-01-24T07:27:15.732Z,16.23
2024-01-24T07:29:42.951Z,15.63
2024-01-24T07:32:10.230Z,19.80
2024-01-24T07:34:40.205Z,17.70
2024-01-24T07:37:09.051Z,19.13
2024-01-24T07:39:36.674Z,20.13
2024-01-24T07:42:04.445Z,17.70
2024-01-24T07:44:32.512Z,14.87
2024-01-24T07:47:01.067Z,16.17
2024-01-24T07:49:28.817Z,16.97
2024-01-24T07:51:56.372Z,14.40
2024-01-24T07:54:24.173Z,13.20
2024-01-24T07:56:51.528Z,17.53
2024-01-24T07:59:19.222Z,16.87
2024-01-24T08:01:50.629Z,16.73
2024-01-24T08:04:19.226Z,13.77
2024-01-24T08:06:49.482Z,15.03
2024-01-24T08:09:21.282Z,16.37
2024-01-24T08:11:49.057Z,16.43
2024-01-24T08:14:17.660Z,17.00
2024-01-24T08:17:05.383Z,17.57
2024-01-24T08:19:33.616Z,19.33
2024-01-24T08:22:01.342Z,18.10
2024-01-24T08:24:28.993Z,18.13
2024-01-24T08:26:56.330Z,17.80
2024-01-24T08:29:35.944Z,17.03
2024-01-24T08:32:06.501Z,15.80
2024-01-24T08:34:39.217Z,19.50
2024-01-24T08:37:07.532Z,17.73
2024-01-24T08:39:35.105Z,15.63
2024-01-24T08:42:04.382Z,17.57
2024-01-24T08:44:34.227Z,17.17
2024-01-24T08:47:01.690Z,18.13
2024-01-24T08:49:35.149Z,21.03
2024-01-24T08:52:02.601Z,18.83
2024-01-24T08:54:30.200Z,20.10
2024-01-24T08:56:58.874Z,24.37
2024-01-24T08:59:26.604Z,19.80
2024-01-24T09:01:56.737Z,17.80
2024-01-24T09:04:25.463Z,21.07
2024-01-24T09:06:53.423Z,24.33
2024-01-24T09:09:22.389Z,19.83
2024-01-24T09:11:56.249Z,19.03
2024-01-24T09:14:26.506Z,22.60
2024-01-24T09:16:54.193Z,22.03
2024-01-24T09:19:22.315Z,19.87
2024-01-24T09:21:50.773Z,23.17
2024-01-24T09:24:18.203Z,17.60
2024-01-24T09:26:46.006Z,18.67
2024-01-24T09:29:14.184Z,18.90
2024-01-24T09:31:47.915Z,17.90
2024-01-24T09:34:16.111Z,16.60
2024-01-24T09:36:43.641Z,19.33
2024-01-24T09:39:11.095Z,17.13
2024-01-24T09:41:43.745Z,21.20
2024-01-24T09:44:15.436Z,21.00
2024-01-24T09:46:43.270Z,22.73
2024-01-24T09:49:12.379Z,21.47
2024-01-24T09:51:41.783Z,20.53
2024-01-24T09:54:10.171Z,18.13
2024-01-24T09:56:41.682Z,17.83
2024-01-24T09:59:10.359Z,20.47
2024-01-24T10:01:40.640Z,18.70
2024-01-24T10:04:09.102Z,21.83
2024-01-24T10:06:42.720Z,21.70
2024-01-24T10:09:10.711Z,20.37
2024-01-24T10:11:37.981Z,19.67
2024-01-24T10:14:05.194Z,21.67
2024-01-24T10:16:32.474Z,20.87
2024-01-24T10:19:00.389Z,17.17
2024-01-24T10:21:27.978Z,20.57
2024-01-24T10:24:00.878Z,22.13
2024-01-24T10:26:28.561Z,18.57
2024-01-24T10:28:56.296Z,24.13
2024-01-24T10:31:25.882Z,21.30
2024-01-24T10:34:00.099Z,16.20
2024-01-24T10:36:32.968Z,24.00
2024-01-24T10:39:06.656Z,21.17
2024-01-24T10:41:41.549Z,20.80
2024-01-24T10:44:11.483Z,20.10
2024-01-24T10:46:40.471Z,18.93
2024-01-24T10:49:13.918Z,18.97
2024-01-24T10:51:44.573Z,22.27
2024-01-24T10:54:16.948Z,20.00
2024-01-24T10:56:51.821Z,22.43
2024-01-24T10:59:19.838Z,17.90
2024-01-24T11:01:49.309Z,22.37
2024-01-24T11:04:22.007Z,18.40
2024-01-24T11:07:09.613Z,22.60
2024-01-24T11:09:47.385Z,16.67
2024-01-24T11:12:14.978Z,16.30
2024-01-24T11:14:48.431Z,17.67
2024-01-24T11:17:15.810Z,19.37
2024-01-24T11:19:44.088Z,14.30
2024-01-24T11:22:19.855Z,15.90
2024-01-24T11:24:56.381Z,16.80
2024-01-24T11:27:39.415Z,19.03
2024-01-24T11:30:08.310Z,18.23
2024-01-24T11:33:02.211Z,19.90
2024-01-24T11:35:29.873Z,16.77
2024-01-24T11:38:08.705Z,17.13
2024-01-24T11:40:45.545Z,17.57
2024-01-24T11:43:36.801Z,18.43
2024-01-24T11:46:09.859Z,19.40
2024-01-24T11:48:40.589Z,15.37
2024-01-24T11:51:16.617Z,17.70
2024-01-24T11:53:43.855Z,18.50
2024-01-24T11:56:19.455Z,19.70
2024-01-24T11:58:47.134Z,13.77
2024-01-24T12:01:14.849Z,18.80
2024-01-24T12:03:51.178Z,18.17
2024-01-24T12:06:19.723Z,20.23
2024-01-24T12:08:50.225Z,18.80
2024-01-24T12:11:19.487Z,16.97
2024-01-24T12:13:47.965Z,17.57
2024-01-24T12:16:21.588Z,15.37
2024-01-24T12:18:49.137Z,14.37
2024-01-24T12:21:17.861Z,17.73
2024-01-24T12:23:49.268Z,14.77
2024-01-24T12:26:17.500Z,16.50
2024-01-24T12:28:46.624Z,15.73
2024-01-24T12:31:14.483Z,13.70
2024-01-24T12:33:42.200Z,14.20
2024-01-24T12:36:11.956Z,16.43
2024-01-24T12:38:39.805Z,16.03
2024-01-24T12:41:07.512Z,16.63
2024-01-24T12:43:36.581Z,14.87
2024-01-24T12:46:09.329Z,15.83
2024-01-24T12:48:38.771Z,13.30
2024-01-24T12:51:07.072Z,13.77
2024-01-24T12:53:34.484Z,18.27
2024-01-24T12:56:02.013Z,15.87
2024-01-24T12:58:29.535Z,13.93
2024-01-24T13:00:57.334Z,15.70
2024-01-24T13:03:27.469Z,14.53
2024-01-24T13:05:57.037Z,13.50
2024-01-24T13:08:24.867Z,13.87
2024-01-24T13:10:53.672Z,14.50
2024-01-24T13:13:21.677Z,14.13
2024-01-24T13:15:53.724Z,14.87
2024-01-24T13:18:21.229Z,12.37
2024-01-24T13:20:48.615Z,14.30
2024-01-24T13:23:16.735Z,12.90
2024-01-24T13:25:43.995Z,15.33
2024-01-24T13:28:13.606Z,13.97
2024-01-24T13:30:41.910Z,15.50
2024-01-24T13:33:11.117Z,13.40
2024-01-24T13:35:38.798Z,16.50
2024-01-24T13:38:06.440Z,14.47
2024-01-24T13:40:33.825Z,12.27
2024-01-24T13:43:07.078Z,10.13
2024-01-24T13:45:38.330Z,16.17
2024-01-24T13:48:09.165Z,15.50
2024-01-24T13:50:39.247Z,15.87
2024-01-24T13:53:07.475Z,13.40
2024-01-24T13:55:34.989Z,13.47
2024-01-24T13:58:02.584Z,12.43
2024-01-24T14:00:30.216Z,14.70
2024-01-24T14:02:57.475Z,13.57
2024-01-24T14:05:24.926Z,14.03
2024-01-24T14:07:52.561Z,12.90
2024-01-24T14:10:20.103Z,13.13
2024-01-24T14:12:47.465Z,14.53
2024-01-24T14:15:24.343Z,14.23
2024-01-24T14:18:00.996Z,12.83
2024-01-24T14:20:28.386Z,12.10
2024-01-24T14:22:55.864Z,11.73
2024-01-24T14:25:23.748Z,15.40
2024-01-24T14:27:51.383Z,16.97
2024-01-24T14:30:19.082Z,12.00
2024-01-24T14:32:46.529Z,11.30
2024-01-24T14:35:19.244Z,12.03
2024-01-24T14:37:47.243Z,12.27
2024-01-24T14:40:17.504Z,16.27
2024-01-24T14:42:44.980Z,13.47
2024-01-24T14:45:12.568Z,13.63
2024-01-24T14:47:40.404Z,13.63
2024-01-24T14:50:10.842Z,12.53
2024-01-24T14:52:38.762Z,12.37
2024-01-24T14:55:07.809Z,9.93
2024-01-24T14:57:35.396Z,16.43
2024-01-24T15:00:10.614Z,14.53
2024-01-24T15:02:39.546Z,12.07
2024-01-24T15:05:09.816Z,11.27
2024-01-24T15:07:38.237Z,14.27
2024-01-24T15:10:06.954Z,11.83
2024-01-24T15:12:35.516Z,14.40
2024-01-24T15:15:05.126Z,10.80
2024-01-24T15:17:33.741Z,11.40
2024-01-24T15:20:05.546Z,11.67
2024-01-24T15:22:37.544Z,14.33
2024-01-24T15:25:08.121Z,12.27
2024-01-24T15:28:53.774Z,13.73
2024-01-24T15:31:24.404Z,13.70
2024-01-24T15:33:51.776Z,11.00
2024-01-24T15:36:19.269Z,13.30
2024-01-24T15:38:51.797Z,14.70
2024-01-24T15:41:22.384Z,9.73
2024-01-24T15:43:50.996Z,12.93
2024-01-24T15:46:22.664Z,13.80
2024-01-24T15:48:50.790Z,13.13
2024-01-24T15:51:19.581Z,13.57
2024-01-24T15:53:47.247Z,13.13
2024-01-24T15:56:14.848Z,17.93
2024-01-24T15:58:45.427Z,12.77
2024-01-24T16:01:12.887Z,12.47
2024-01-24T16:03:40.624Z,12.10
2024-01-24T16:06:08.337Z,14.27
2024-01-24T16:08:36.184Z,14.50
2024-01-24T16:11:06.514Z,11.50
2024-01-24T16:13:35.546Z,10.90
2024-01-24T16:16:03.974Z,12.50
2024-01-24T16:18:32.809Z,11.57
2024-01-24T16:21:04.503Z,15.57
2024-01-24T16:23:34.710Z,11.50
2024-01-24T16:26:07.046Z,12.77
2024-01-24T16:28:40.391Z,14.63
2024-01-24T16:31:08.328Z,14.10
2024-01-24T16:33:48.640Z,13.43
2024-01-24T16:36:16.139Z,12.73
2024-01-24T16:38:43.863Z,13.40
2024-01-24T16:41:12.122Z,13.87
2024-01-24T16:43:41.148Z,13.63
2024-01-24T16:46:08.759Z,14.67
2024-01-24T16:48:39.027Z,18.20
2024-01-24T16:51:06.696Z,11.53
2024-01-24T16:53:37.577Z,14.03
2024-01-24T16:56:07.094Z,18.83
2024-01-24T16:58:37.463Z,12.03
2024-01-24T17:01:05.351Z,12.43
2024-01-24T17:03:33.068Z,12.93
2024-01-24T17:06:03.815Z,11.13
2024-01-24T17:08:31.371Z,14.83
2024-01-24T17:10:58.823Z,13.97
2024-01-24T17:13:27.566Z,14.27
2024-01-24T17:15:54.966Z,13.03
2024-01-24T17:18:27.452Z,13.20
2024-01-24T17:20:55.265Z,14.97
2024-01-24T17:23:22.727Z,14.63
2024-01-24T17:25:50.238Z,15.53
2024-01-24T17:28:17.921Z,11.20
2024-01-24T17:30:45.730Z,13.60
2024-01-24T17:33:13.477Z,13.37
2024-01-24T17:35:42.810Z,12.17
2024-01-24T17:38:12.209Z,16.50
2024-01-24T17:40:39.884Z,14.10
2024-01-24T17:43:07.493Z,14.23
2024-01-24T17:45:35.011Z,17.30
2024-01-24T17:48:03.051Z,18.43
2024-01-24T17:50:30.629Z,16.73
2024-01-24T17:53:02.056Z,12.27
2024-01-24T17:55:53.207Z,18.07
2024-01-24T17:58:21.177Z,18.97
2024-01-24T18:00:53.245Z,15.83
2024-01-24T18:04:19.107Z,16.00
2024-01-24T18:06:46.550Z,19.33
2024-01-24T18:09:14.258Z,17.67
2024-01-24T18:11:45.620Z,16.63
2024-01-24T18:14:13.452Z,21.53
2024-01-24T18:16:40.847Z,21.87
2024-01-24T18:19:08.285Z,17.83
2024-01-24T18:21:36.019Z,17.77
2024-01-24T18:24:05.291Z,20.50
2024-01-24T18:26:41.629Z,20.50
2024-01-24T18:29:08.900Z,18.40
2024-01-24T18:31:38.656Z,20.37
2024-01-24T18:34:06.346Z,16.87
2024-01-24T18:36:36.106Z,21.90
2024-01-24T18:39:04.153Z,16.73
2024-01-24T18:41:34.268Z,15.47
2024-01-24T18:44:02.071Z,20.40
2024-01-24T18:46:29.985Z,21.60
2024-01-24T18:48:58.842Z,18.83
2024-01-24T18:51:27.666Z,17.63
2024-01-24T18:53:56.892Z,19.43
2024-01-24T18:56:26.814Z,21.40
2024-01-24T18:58:57.368Z,17.60
2024-01-24T19:01:25.189Z,17.53
2024-01-24T19:04:00.717Z,20.27
2024-01-24T19:06:29.068Z,18.40
2024-01-24T19:09:01.610Z,21.80
2024-01-24T19:11:30.627Z,18.57
2024-01-24T19:13:58.555Z,21.30
2024-01-24T19:16:26.907Z,20.80
2024-01-24T19:18:54.826Z,21.27
2024-01-24T19:21:27.166Z,19.70
2024-01-24T19:23:54.606Z,21.30
2024-01-24T19:26:22.877Z,17.10
2024-01-24T19:28:55.959Z,20.80
2024-01-24T19:31:23.426Z,19.30
2024-01-24T19:33:52.399Z,20.50
2024-01-24T19:36:21.203Z,19.27
2024-01-24T19:38:49.068Z,14.23
2024-01-24T19:41:19.293Z,21.13
2024-01-24T19:43:51.170Z,23.53
2024-01-24T19:46:20.882Z,17.43
2024-01-24T19:48:48.586Z,23.63
2024-01-24T19:51:16.036Z,19.17
2024-01-24T19:53:46.089Z,21.57
2024-01-24T19:56:17.825Z,19.90
2024-01-24T19:58:45.411Z,24.50
2024-01-24T20:01:15.307Z,22.03
2024-01-24T20:03:46.218Z,23.97
2024-01-24T20:06:14.954Z,19.43
2024-01-24T20:08:42.533Z,21.27
2024-01-24T20:11:13.108Z,18.30
2024-01-24T20:13:41.255Z,21.67
2024-01-24T20:16:09.370Z,28.87
2024-01-24T20:18:37.541Z,23.20
2024-01-24T20:21:08.309Z,22.60
2024-01-24T20:23:38.405Z,22.43
2024-01-24T20:26:08.734Z,25.33
2024-01-24T20:28:38.012Z,22.30
2024-01-24T20:31:10.436Z,21.30
2024-01-24T20:33:41.797Z,22.67
2024-01-24T20:36:16.987Z,23.17
2024-01-24T20:38:45.362Z,27.30
2024-01-24T20:41:15.882Z,22.23
2024-01-24T20:43:43.504Z,28.17
2024-01-24T20:46:12.381Z,21.50
2024-01-24T20:48:40.222Z,24.20
2024-01-24T20:51:07.838Z,18.93
2024-01-24T20:53:35.403Z,22.23
2024-01-24T20:56:04.509Z,27.27
2024-01-24T20:58:34.331Z,20.90
2024-01-24T21:01:03.030Z,25.40
2024-01-24T21:03:30.965Z,22.33
2024-01-24T21:05:58.417Z,20.73
2024-01-24T21:08:28.525Z,24.27
2024-01-24T21:11:02.720Z,22.23
2024-01-24T21:13:32.146Z,25.40
2024-01-24T21:16:02.506Z,23.33
2024-01-24T21:18:30.353Z,23.70
2024-01-24T21:20:58.317Z,24.13
2024-01-24T21:23:27.168Z,18.73
2024-01-24T21:25:54.451Z,22.67
2024-01-24T21:28:21.934Z,23.10
2024-01-24T21:30:49.880Z,19.50
2024-01-24T21:33:17.287Z,17.57
2024-01-24T21:35:44.720Z,21.83
2024-01-24T21:38:14.308Z,21.10
2024-01-24T21:40:42.022Z,20.17
2024-01-24T21:43:09.845Z,21.13
2024-01-24T21:45:37.145Z,20.77
2024-01-24T21:48:04.815Z,22.63
2024-01-24T21:50:32.420Z,23.13
2024-01-24T21:52:59.719Z,19.43
2024-01-24T21:55:27.065Z,21.90
2024-01-24T21:57:54.636Z,20.97
2024-01-24T22:00:24.751Z,22.53
2024-01-24T22:02:53.776Z,24.43
2024-01-24T22:05:22.363Z,24.33
2024-01-24T22:07:52.362Z,21.10
2024-01-24T22:10:25.833Z,23.63
2024-01-24T22:12:53.292Z,26.67
2024-01-24T22:15:22.741Z,20.57
2024-01-24T22:17:50.153Z,19.73
2024-01-24T22:20:18.367Z,27.90
2024-01-24T22:22:46.211Z,24.10
2024-01-24T22:25:13.629Z,23.10
2024-01-24T22:27:41.152Z,21.37
2024-01-24T22:30:09.516Z,20.10
2024-01-24T22:32:37.000Z,19.17
2024-01-24T22:35:06.177Z,22.33
2024-01-24T22:37:34.087Z,26.73
2024-01-24T22:40:01.423Z,22.80
2024-01-24T22:42:28.716Z,25.00
2024-01-24T22:44:55.965Z,18.73
2024-01-24T22:47:26.490Z,20.73
2024-01-24T22:49:53.971Z,22.30
2024-01-24T22:52:24.571Z,17.90
2024-01-24T22:54:52.120Z,23.87
2024-01-24T22:57:19.884Z,26.07
2024-01-24T22:59:49.033Z,21.13
2024-01-24T23:02:18.589Z,22.03
2024-01-24T23:04:46.092Z,22.70
2024-01-24T23:07:13.588Z,22.97
2024-01-24T23:09:40.921Z,21.37
2024-01-24T23:12:08.421Z,22.77
2024-01-24T23:14:35.864Z,25.43
2024-01-24T23:17:03.198Z,20.23
2024-01-24T23:19:30.545Z,22.77
2024-01-24T23:21:57.783Z,21.33
2024-01-24T23:24:24.989Z,17.47
2024-01-24T23:26:52.342Z,25.47
2024-01-24T23:29:19.553Z,23.83
2024-01-24T23:31:46.654Z,26.10
2024-01-24T23:34:14.136Z,24.67
2024-01-24T23:36:41.547Z,25.30
2024-01-24T23:39:08.933Z,24.13
2024-01-24T23:41:41.785Z,21.70
2024-01-24T23:44:15.390Z,22.93
2024-01-24T23:46:42.781Z,26.33
2024-01-24T23:49:10.247Z,24.50
2024-01-24T23:51:37.829Z,24.87
2024-01-24T23:54:05.826Z,20.13
2024-01-24T23:56:33.049Z,22.47
2024-01-24T23:59:00.427Z,25.57
